Time;durP1;ratioP1;P1;durP2;ratioP2;P2;SDS_P1;SDS_P2;PMS_P1;PMS_P2;Temp;Humidity;BMP_temperature;BMP_pressure;BME280_temperature;BME280_humidity;BME280_pressure;Samples;Min_cycle;Max_cycle;Signal;HPM_P1;HPM_P2
2024/01/17 00:02:12;;;;;;;0.20;0.20;;;;;;;;;;5074505;28;20020;-74
2024/01/17 00:04:37;;;;;;;0.10;0.10;;;;;;;;;;5074987;28;20023;-76
2024/01/17 00:07:03;;;;;;;0.10;0.10;;;;;;;;;;5074431;28;20036;-73
2024/01/17 00:09:29;;;;;;;0.15;0.15;;;;;;;;;;5074923;28;20392;-73
2024/01/17 00:11:54;;;;;;;0.10;0.10;;;;;;;;;;5074963;28;20016;-74
2024/01/17 00:14:20;;;;;;;0.10;0.10;;;;;;;;;;5073261;28;20028;-74
2024/01/17 00:16:45;;;;;;;0.10;0.10;;;;;;;;;;5075032;28;20082;-74
2024/01/17 00:19:11;;;;;;;0.10;0.10;;;;;;;;;;5074023;28;20028;-74
2024/01/17 00:21:37;;;;;;;0.10;0.10;;;;;;;;;;5073169;28;20472;-74
2024/01/17 00:24:03;;;;;;;0.10;0.10;;;;;;;;;;5073531;28;20513;-77
2024/01/17 00:26:28;;;;;;;0.10;0.10;;;;;;;;;;5074255;28;20337;-74
2024/01/17 00:28:55;;;;;;;0.25;0.25;;;;;;;;;;5073093;28;20024;-74
2024/01/17 00:31:21;;;;;;;0.10;0.10;;;;;;;;;;5074251;28;20024;-73
2024/01/17 00:33:47;;;;;;;0.10;0.10;;;;;;;;;;5074218;28;20024;-74
2024/01/17 00:36:14;;;;;;;0.10;0.10;;;;;;;;;;5072855;28;20027;-75
2024/01/17 00:38:41;;;;;;;0.10;0.10;;;;;;;;;;5073409;28;20035;-75
2024/01/17 00:41:07;;;;;;;0.10;0.10;;;;;;;;;;5073367;28;20373;-75
2024/01/17 00:43:35;;;;;;;0.10;0.10;;;;;;;;;;5073504;28;20027;-75
2024/01/17 00:46:01;;;;;;;0.10;0.10;;;;;;;;;;5073648;28;20070;-73
2024/01/17 00:48:26;;;;;;;0.15;0.15;;;;;;;;;;5073764;28;20024;-74
2024/01/17 00:50:52;;;;;;;0.13;0.13;;;;;;;;;;5073894;28;20461;-74
2024/01/17 00:53:18;;;;;;;0.15;0.15;;;;;;;;;;5072800;28;20360;-73
2024/01/17 00:55:43;;;;;;;0.10;0.10;;;;;;;;;;5072624;28;20024;-73
2024/01/17 00:58:09;;;;;;;0.17;0.17;;;;;;;;;;5073618;28;20098;-75
2024/01/17 01:00:34;;;;;;;0.10;0.10;;;;;;;;;;5074063;28;20020;-75
2024/01/17 01:03:00;;;;;;;0.20;0.20;;;;;;;;;;5072752;28;20012;-75
2024/01/17 01:05:25;;;;;;;0.10;0.10;;;;;;;;;;5074153;28;20356;-73
2024/01/17 01:07:51;;;;;;;0.10;0.10;;;;;;;;;;5073575;28;20070;-74
2024/01/17 01:10:17;;;;;;;0.10;0.10;;;;;;;;;;5072905;28;20403;-74
2024/01/17 01:12:42;;;;;;;0.10;0.10;;;;;;;;;;5073643;28;20028;-75
2024/01/17 01:15:08;;;;;;;0.10;0.10;;;;;;;;;;5073748;28;20025;-73
2024/01/17 01:17:34;;;;;;;0.10;0.10;;;;;;;;;;5073521;28;20025;-74
2024/01/17 01:20:00;;;;;;;0.10;0.10;;;;;;;;;;5073719;28;20029;-73
2024/01/17 01:22:25;;;;;;;0.10;0.10;;;;;;;;;;5073612;28;20481;-74
2024/01/17 01:24:51;;;;;;;0.40;0.40;;;;;;;;;;5073685;28;20025;-74
2024/01/17 01:27:17;;;;;;;0.10;0.10;;;;;;;;;;5073922;28;20025;-75
2024/01/17 01:29:42;;;;;;;0.10;0.10;;;;;;;;;;5073391;28;20048;-75
2024/01/17 01:32:08;;;;;;;0.10;0.10;;;;;;;;;;5072209;28;20017;-75
2024/01/17 01:34:34;;;;;;;0.10;0.10;;;;;;;;;;5073316;28;20052;-74
2024/01/17 01:37:00;;;;;;;0.10;0.10;;;;;;;;;;5073228;28;20032;-74
2024/01/17 01:39:26;;;;;;;0.10;0.10;;;;;;;;;;5073325;28;20096;-74
2024/01/17 01:41:52;;;;;;;0.10;0.10;;;;;;;;;;5073264;28;20013;-73
2024/01/17 01:44:17;;;;;;;0.10;0.10;;;;;;;;;;5072065;28;20028;-73
2024/01/17 01:46:44;;;;;;;0.10;0.10;;;;;;;;;;5074315;28;20078;-73
2024/01/17 01:49:10;;;;;;;0.10;0.10;;;;;;;;;;5073180;28;20059;-74
2024/01/17 01:51:36;;;;;;;0.10;0.10;;;;;;;;;;5073284;28;20496;-75
2024/01/17 01:54:03;;;;;;;0.10;0.10;;;;;;;;;;5072168;28;20114;-74
2024/01/17 01:56:30;;;;;;;0.10;0.10;;;;;;;;;;5074464;28;20029;-74
2024/01/17 01:58:57;;;;;;;2.75;2.65;;;;;;;;;;5077938;28;20020;-74
2024/01/17 02:01:23;;;;;;;0.20;0.20;;;;;;;;;;5076725;28;20052;-74
2024/01/17 02:03:49;;;;;;;0.10;0.10;;;;;;;;;;5077060;28;20024;-73
2024/01/17 02:06:17;;;;;;;0.20;0.20;;;;;;;;;;5075558;28;20452;-74
2024/01/17 02:08:43;;;;;;;0.10;0.10;;;;;;;;;;5075828;28;20142;-74
2024/01/17 02:11:09;;;;;;;0.10;0.10;;;;;;;;;;5076680;28;20048;-75
2024/01/17 02:13:35;;;;;;;0.40;0.40;;;;;;;;;;5076891;28;20017;-74
2024/01/17 02:16:00;;;;;;;0.20;0.20;;;;;;;;;;5076573;28;20513;-75
2024/01/17 02:18:26;;;;;;;0.22;0.22;;;;;;;;;;5076514;28;20143;-75
2024/01/17 02:20:52;;;;;;;0.10;0.10;;;;;;;;;;5076501;28;20353;-74
2024/01/17 02:23:24;;;;;;;0.10;0.10;;;;;;;;;;5076432;28;20073;-76
2024/01/17 02:25:50;;;;;;;0.10;0.10;;;;;;;;;;5076008;28;20034;-76
2024/01/17 02:28:16;;;;;;;0.10;0.10;;;;;;;;;;5077170;28;20016;-76
2024/01/17 02:30:42;;;;;;;0.10;0.10;;;;;;;;;;5076295;28;20027;-76
2024/01/17 02:33:07;;;;;;;0.10;0.10;;;;;;;;;;5076783;28;20021;-74
2024/01/17 02:35:33;;;;;;;0.10;0.10;;;;;;;;;;5076249;28;20050;-73
2024/01/17 02:37:59;;;;;;;0.10;0.10;;;;;;;;;;5076926;28;20060;-73
2024/01/17 02:40:24;;;;;;;0.10;0.10;;;;;;;;;;5076687;28;20016;-73
2024/01/17 02:42:50;;;;;;;0.50;0.50;;;;;;;;;;5076282;28;20017;-73
2024/01/17 02:45:16;;;;;;;0.10;0.10;;;;;;;;;;5076766;28;20375;-73
2024/01/17 02:47:41;;;;;;;0.10;0.10;;;;;;;;;;5076634;28;20467;-73
2024/01/17 02:50:07;;;;;;;0.10;0.10;;;;;;;;;;5075949;28;20123;-73
2024/01/17 02:52:33;;;;;;;0.10;0.10;;;;;;;;;;5076532;28;20436;-73
2024/01/17 02:54:58;;;;;;;10.98;10.23;;;;;;;;;;5075577;28;20028;-73
2024/01/17 02:57:24;;;;;;;0.10;0.10;;;;;;;;;;5076031;28;20368;-73
2024/01/17 02:59:49;;;;;;;0.10;0.10;;;;;;;;;;5075716;28;20028;-73
2024/01/17 03:02:15;;;;;;;0.10;0.10;;;;;;;;;;5074798;28;20020;-73
2024/01/17 03:04:40;;;;;;;0.10;0.10;;;;;;;;;;5075679;28;20024;-73
2024/01/17 03:07:06;;;;;;;0.10;0.10;;;;;;;;;;5075934;28;20021;-72
2024/01/17 03:09:32;;;;;;;0.10;0.10;;;;;;;;;;5075067;28;20459;-75
2024/01/17 03:11:57;;;;;;;0.15;0.15;;;;;;;;;;5075579;28;20028;-73
2024/01/17 03:14:23;;;;;;;0.10;0.10;;;;;;;;;;5076069;28;20025;-76
2024/01/17 03:16:48;;;;;;;0.35;0.35;;;;;;;;;;5075408;28;20028;-74
2024/01/17 03:19:15;;;;;;;0.10;0.10;;;;;;;;;;5075446;28;20027;-74
2024/01/17 03:21:44;;;;;;;0.10;0.10;;;;;;;;;;5075371;28;20031;-74
2024/01/17 03:24:10;;;;;;;0.10;0.10;;;;;;;;;;5074877;28;20125;-73
2024/01/17 03:26:36;;;;;;;0.10;0.10;;;;;;;;;;5074862;28;20036;-74
2024/01/17 03:29:01;;;;;;;0.10;0.10;;;;;;;;;;5075777;28;20444;-73
2024/01/17 03:31:27;;;;;;;0.10;0.10;;;;;;;;;;5075176;28;20028;-73
2024/01/17 03:33:52;;;;;;;0.10;0.10;;;;;;;;;;5075669;28;20032;-74
2024/01/17 03:36:18;;;;;;;0.10;0.10;;;;;;;;;;5075267;28;20025;-74
2024/01/17 03:38:44;;;;;;;0.10;0.10;;;;;;;;;;5075018;28;20032;-75
2024/01/17 03:41:10;;;;;;;0.10;0.10;;;;;;;;;;5075538;28;20036;-74
2024/01/17 03:43:36;;;;;;;0.10;0.10;;;;;;;;;;5075460;28;20046;-75
2024/01/17 03:46:01;;;;;;;0.32;0.32;;;;;;;;;;5075401;28;20386;-74
2024/01/17 03:48:27;;;;;;;0.10;0.10;;;;;;;;;;5075369;28;20038;-73
2024/01/17 03:50:52;;;;;;;0.10;0.10;;;;;;;;;;5074884;28;20044;-73
2024/01/17 03:53:20;;;;;;;0.10;0.10;;;;;;;;;;5074997;28;20028;-73
2024/01/17 03:55:46;;;;;;;0.10;0.10;;;;;;;;;;5074691;28;20051;-73
2024/01/17 03:58:12;;;;;;;0.10;0.10;;;;;;;;;;5074383;28;20086;-72
2024/01/17 04:00:37;;;;;;;0.10;0.10;;;;;;;;;;5072924;28;20495;-74
2024/01/17 04:03:03;;;;;;;0.10;0.10;;;;;;;;;;5074804;28;20108;-75
2024/01/17 04:05:29;;;;;;;0.10;0.10;;;;;;;;;;5075303;28;20024;-76
2024/01/17 04:07:54;;;;;;;0.10;0.10;;;;;;;;;;5074455;28;20036;-74
2024/01/17 04:10:20;;;;;;;0.10;0.10;;;;;;;;;;5074948;28;20012;-73
2024/01/17 04:12:45;;;;;;;0.10;0.10;;;;;;;;;;5074636;28;20055;-74
2024/01/17 04:15:11;;;;;;;0.10;0.10;;;;;;;;;;5074836;28;20029;-73
2024/01/17 04:17:36;;;;;;;0.10;0.10;;;;;;;;;;5074170;28;20037;-73
2024/01/17 04:20:04;;;;;;;0.10;0.10;;;;;;;;;;5073768;28;20028;-74
2024/01/17 04:22:31;;;;;;;0.10;0.10;;;;;;;;;;5074668;28;20012;-74
2024/01/17 04:24:57;;;;;;;0.10;0.10;;;;;;;;;;5074387;28;20030;-74
2024/01/17 04:27:22;;;;;;;0.10;0.10;;;;;;;;;;5074369;28;20029;-74
2024/01/17 04:29:48;;;;;;;0.10;0.10;;;;;;;;;;5074040;28;20121;-74
2024/01/17 04:32:14;;;;;;;0.10;0.10;;;;;;;;;;5086626;28;20070;-74
2024/01/17 04:34:40;;;;;;;0.10;0.10;;;;;;;;;;5094258;28;20024;-74
2024/01/17 04:37:05;;;;;;;0.10;0.10;;;;;;;;;;5093129;28;20103;-74
2024/01/17 04:39:31;;;;;;;0.10;0.10;;;;;;;;;;5094697;28;20016;-75
2024/01/17 04:41:58;;;;;;;0.10;0.10;;;;;;;;;;5094093;28;20039;-74
2024/01/17 04:44:24;;;;;;;0.10;0.10;;;;;;;;;;5093026;28;20085;-74
2024/01/17 04:46:50;;;;;;;0.10;0.10;;;;;;;;;;5094822;28;20027;-74
2024/01/17 04:49:15;;;;;;;0.15;0.15;;;;;;;;;;5094644;28;20027;-74
2024/01/17 04:51:42;;;;;;;0.10;0.10;;;;;;;;;;5093660;28;20411;-74
2024/01/17 04:54:08;;;;;;;0.10;0.10;;;;;;;;;;5094854;28;20012;-74
2024/01/17 04:56:34;;;;;;;0.10;0.10;;;;;;;;;;5092849;28;20398;-74
2024/01/17 04:59:00;;;;;;;0.10;0.10;;;;;;;;;;5093882;28;20045;-74
2024/01/17 05:01:25;;;;;;;0.10;0.10;;;;;;;;;;5093258;28;20056;-73
2024/01/17 05:03:51;;;;;;;0.10;0.10;;;;;;;;;;5093839;28;20012;-74
2024/01/17 05:06:16;;;;;;;0.10;0.10;;;;;;;;;;5092687;28;20451;-74
2024/01/17 05:08:42;;;;;;;0.10;0.10;;;;;;;;;;5093786;28;20004;-74
2024/01/17 05:11:08;;;;;;;0.10;0.10;;;;;;;;;;5094043;28;20451;-74
2024/01/17 05:13:33;;;;;;;0.10;0.10;;;;;;;;;;5094421;28;20110;-73
2024/01/17 05:15:59;;;;;;;0.10;0.10;;;;;;;;;;5092754;28;20067;-73
2024/01/17 05:18:24;;;;;;;0.10;0.10;;;;;;;;;;5093931;28;20058;-74
2024/01/17 05:20:50;;;;;;;0.85;0.68;;;;;;;;;;5093246;28;20031;-74
2024/01/17 05:23:16;;;;;;;0.10;0.10;;;;;;;;;;5093972;28;20379;-73
2024/01/17 05:25:41;;;;;;;0.10;0.10;;;;;;;;;;5093935;28;20077;-74
2024/01/17 05:28:07;;;;;;;0.10;0.10;;;;;;;;;;5094179;28;20028;-74
2024/01/17 05:30:33;;;;;;;0.10;0.10;;;;;;;;;;5093533;28;20503;-74
2024/01/17 05:32:58;;;;;;;0.10;0.10;;;;;;;;;;5098040;28;20024;-75
2024/01/17 05:35:24;;;;;;;0.28;0.28;;;;;;;;;;5098244;28;20024;-75
2024/01/17 05:37:49;;;;;;;0.10;0.10;;;;;;;;;;5096365;28;20106;-75
2024/01/17 05:40:15;;;;;;;0.30;0.30;;;;;;;;;;5097580;28;20027;-76
2024/01/17 05:42:42;;;;;;;0.10;0.10;;;;;;;;;;5097876;28;20527;-76
2024/01/17 05:45:08;;;;;;;0.75;0.20;;;;;;;;;;5096803;28;20061;-75
2024/01/17 05:47:37;;;;;;;0.10;0.10;;;;;;;;;;5081526;28;20032;-74
2024/01/17 05:50:11;;;;;;;0.10;0.10;;;;;;;;;;5076258;28;20074;-74
2024/01/17 05:52:45;;;;;;;0.10;0.10;;;;;;;;;;5076473;28;20527;-75
2024/01/17 05:55:12;;;;;;;0.10;0.10;;;;;;;;;;5077619;28;20024;-74
2024/01/17 05:57:38;;;;;;;0.10;0.10;;;;;;;;;;5076862;28;20032;-74
2024/01/17 06:00:09;;;;;;;0.10;0.10;;;;;;;;;;5077160;28;20371;-75
2024/01/17 06:02:38;;;;;;;0.10;0.10;;;;;;;;;;5076709;28;20028;-75
2024/01/17 06:05:05;;;;;;;0.10;0.10;;;;;;;;;;5076824;28;20020;-73
2024/01/17 06:07:30;;;;;;;2.75;1.55;;;;;;;;;;5077123;28;20037;-73
2024/01/17 06:09:56;;;;;;;0.20;0.20;;;;;;;;;;5076705;28;20055;-73
2024/01/17 06:12:22;;;;;;;0.10;0.10;;;;;;;;;;5083172;28;20108;-74
2024/01/17 06:14:48;;;;;;;0.17;0.17;;;;;;;;;;5095648;28;20062;-74
2024/01/17 06:17:14;;;;;;;0.10;0.10;;;;;;;;;;5096756;28;20028;-75
2024/01/17 06:19:41;;;;;;;0.10;0.10;;;;;;;;;;5097384;28;20329;-73
2024/01/17 06:22:07;;;;;;;0.10;0.10;;;;;;;;;;5096230;28;20017;-75
2024/01/17 06:24:33;;;;;;;0.10;0.10;;;;;;;;;;5076662;28;20036;-74
2024/01/17 06:26:58;;;;;;;0.10;0.10;;;;;;;;;;5076390;28;20344;-74
2024/01/17 06:29:25;;;;;;;0.10;0.10;;;;;;;;;;5075746;28;20475;-73
2024/01/17 06:31:52;;;;;;;0.10;0.10;;;;;;;;;;5076199;28;20033;-73
2024/01/17 06:34:18;;;;;;;0.17;0.17;;;;;;;;;;5076283;28;20103;-73
2024/01/17 06:36:43;;;;;;;0.10;0.10;;;;;;;;;;5075976;28;20115;-74
2024/01/17 06:39:10;;;;;;;0.10;0.10;;;;;;;;;;5076080;28;20048;-74
2024/01/17 06:41:36;;;;;;;0.10;0.10;;;;;;;;;;5075680;28;20372;-73
2024/01/17 06:44:02;;;;;;;0.10;0.10;;;;;;;;;;5075024;28;20028;-75
2024/01/17 06:46:27;;;;;;;0.10;0.10;;;;;;;;;;5090588;28;20027;-74
2024/01/17 06:48:53;;;;;;;0.10;0.10;;;;;;;;;;5096306;28;20110;-74
2024/01/17 06:51:19;;;;;;;0.10;0.10;;;;;;;;;;5096943;28;20066;-74
2024/01/17 06:53:44;;;;;;;0.10;0.10;;;;;;;;;;5096045;28;20016;-73
2024/01/17 06:56:10;;;;;;;0.10;0.10;;;;;;;;;;5077494;28;20028;-72
2024/01/17 06:58:36;;;;;;;0.10;0.10;;;;;;;;;;5096050;28;20043;-74
2024/01/17 07:01:02;;;;;;;0.20;0.20;;;;;;;;;;5096108;28;20115;-72
2024/01/17 07:03:27;;;;;;;0.20;0.20;;;;;;;;;;5088872;28;20016;-76
2024/01/17 07:05:53;;;;;;;0.10;0.10;;;;;;;;;;5094531;28;20122;-79
2024/01/17 07:08:19;;;;;;;0.20;0.20;;;;;;;;;;5092521;28;20021;-78
2024/01/17 07:10:46;;;;;;;0.10;0.10;;;;;;;;;;5079424;28;20028;-79
2024/01/17 07:13:12;;;;;;;0.10;0.10;;;;;;;;;;5089547;28;20371;-77
2024/01/17 07:15:37;;;;;;;0.10;0.10;;;;;;;;;;5092686;28;20056;-78
2024/01/17 07:18:03;;;;;;;0.10;0.10;;;;;;;;;;5073604;28;20379;-76
2024/01/17 07:20:29;;;;;;;0.10;0.10;;;;;;;;;;5092793;28;20016;-78
2024/01/17 07:22:55;;;;;;;0.20;0.20;;;;;;;;;;5094883;28;20489;-78
2024/01/17 07:25:21;;;;;;;0.10;0.10;;;;;;;;;;5083200;28;20023;-79
2024/01/17 07:27:47;;;;;;;0.35;0.35;;;;;;;;;;5074265;28;20039;-78
2024/01/17 07:30:14;;;;;;;0.10;0.10;;;;;;;;;;5057812;28;20107;-79
2024/01/17 07:32:41;;;;;;;0.10;0.10;;;;;;;;;;5074354;28;20028;-78
2024/01/17 07:35:07;;;;;;;0.20;0.20;;;;;;;;;;5075535;28;20025;-79
2024/01/17 07:37:32;;;;;;;0.15;0.15;;;;;;;;;;5073566;28;20040;-80
2024/01/17 07:39:59;;;;;;;0.10;0.10;;;;;;;;;;5075273;28;20103;-74
2024/01/17 07:42:24;;;;;;;0.10;0.10;;;;;;;;;;5075129;28;20056;-78
2024/01/17 07:44:50;;;;;;;0.20;0.20;;;;;;;;;;5074179;28;20055;-79
2024/01/17 07:47:16;;;;;;;0.10;0.10;;;;;;;;;;5086969;28;20058;-77
2024/01/17 07:49:42;;;;;;;0.10;0.10;;;;;;;;;;5074254;28;20091;-78
2024/01/17 07:52:07;;;;;;;0.10;0.10;;;;;;;;;;5073724;28;20047;-78
2024/01/17 07:54:33;;;;;;;0.13;0.13;;;;;;;;;;5074225;28;20115;-79
2024/01/17 07:56:59;;;;;;;0.10;0.10;;;;;;;;;;5073991;28;20087;-79
2024/01/17 07:59:27;;;;;;;0.10;0.10;;;;;;;;;;5074762;28;20127;-79
2024/01/17 08:01:53;;;;;;;0.10;0.10;;;;;;;;;;5079286;28;20020;-79
2024/01/17 08:04:19;;;;;;;0.57;0.40;;;;;;;;;;5093865;28;20043;-78
2024/01/17 08:06:44;;;;;;;0.15;0.15;;;;;;;;;;5094010;28;20404;-79
2024/01/17 08:09:24;;;;;;;0.10;0.10;;;;;;;;;;5093759;28;20042;-78
2024/01/17 08:11:50;;;;;;;0.10;0.10;;;;;;;;;;5075621;28;20032;-78
2024/01/17 08:14:16;;;;;;;3.95;1.17;;;;;;;;;;5084887;28;20024;-78
2024/01/17 08:16:41;;;;;;;0.10;0.10;;;;;;;;;;5079894;28;20341;-78
2024/01/17 08:19:07;;;;;;;0.10;0.10;;;;;;;;;;5075127;28;20028;-79
2024/01/17 08:21:32;;;;;;;0.10;0.10;;;;;;;;;;5075212;28;20044;-79
2024/01/17 08:23:59;;;;;;;0.30;0.30;;;;;;;;;;5089773;28;20028;-79
2024/01/17 08:26:25;;;;;;;1.10;1.10;;;;;;;;;;5093150;28;20439;-80
2024/01/17 08:28:50;;;;;;;0.17;0.17;;;;;;;;;;5093394;28;20020;-80
2024/01/17 08:31:16;;;;;;;0.10;0.10;;;;;;;;;;5094254;28;20084;-78
2024/01/17 08:33:42;;;;;;;0.10;0.10;;;;;;;;;;5093412;28;20345;-79
2024/01/17 08:36:08;;;;;;;0.90;0.65;;;;;;;;;;5093632;28;20403;-79
2024/01/17 08:38:33;;;;;;;0.10;0.10;;;;;;;;;;5094064;28;20142;-79
2024/01/17 08:40:59;;;;;;;0.20;0.20;;;;;;;;;;5094378;28;20065;-79
2024/01/17 08:43:24;;;;;;;0.20;0.20;;;;;;;;;;5093176;28;20047;-76
2024/01/17 08:45:50;;;;;;;0.10;0.10;;;;;;;;;;5081776;28;20462;-78
2024/01/17 08:48:16;;;;;;;0.10;0.10;;;;;;;;;;5073274;28;20025;-80
2024/01/17 08:50:41;;;;;;;0.10;0.10;;;;;;;;;;5075319;28;20078;-71
2024/01/17 08:53:07;;;;;;;0.10;0.10;;;;;;;;;;5081417;28;20052;-72
2024/01/17 08:55:32;;;;;;;0.40;0.40;;;;;;;;;;5091275;28;20016;-73
2024/01/17 08:57:58;;;;;;;1.65;0.50;;;;;;;;;;5091687;28;20024;-69
2024/01/17 09:00:24;;;;;;;1.65;0.52;;;;;;;;;;5093106;28;20073;-69
2024/01/17 09:02:50;;;;;;;0.10;0.10;;;;;;;;;;5075485;28;20444;-72
2024/01/17 09:05:18;;;;;;;0.88;0.30;;;;;;;;;;5080416;28;20024;-70
2024/01/17 09:07:45;;;;;;;0.10;0.10;;;;;;;;;;5091673;28;20039;-71
2024/01/17 09:10:13;;;;;;;0.30;0.30;;;;;;;;;;5092111;28;20024;-71
2024/01/17 09:12:38;;;;;;;0.10;0.10;;;;;;;;;;5093069;28;20069;-70
2024/01/17 09:15:04;;;;;;;0.60;0.60;;;;;;;;;;5079090;28;20461;-71
2024/01/17 09:17:30;;;;;;;15.85;2.25;;;;;;;;;;5092152;28;20028;-70
2024/01/17 09:19:55;;;;;;;0.10;0.10;;;;;;;;;;5091944;28;20024;-79
2024/01/17 09:22:21;;;;;;;0.20;0.20;;;;;;;;;;5091207;28;20478;-82
2024/01/17 09:24:47;;;;;;;5.60;1.00;;;;;;;;;;5090928;28;20055;-81
2024/01/17 09:27:12;;;;;;;0.20;0.20;;;;;;;;;;5092624;28;20020;-82
2024/01/17 09:29:38;;;;;;;0.93;0.73;;;;;;;;;;5079328;28;20028;-79
2024/01/17 09:32:04;;;;;;;2.35;1.30;;;;;;;;;;5080908;28;20785;-81
2024/01/17 09:34:32;;;;;;;26.25;4.68;;;;;;;;;;5088014;28;20023;-80
2024/01/17 09:36:59;;;;;;;4.20;1.50;;;;;;;;;;5092983;28;20402;-80
2024/01/17 09:39:25;;;;;;;2.53;1.35;;;;;;;;;;5085436;28;20456;-81
2024/01/17 09:41:51;;;;;;;1.63;0.90;;;;;;;;;;5088696;28;20087;-80
2024/01/17 09:44:17;;;;;;;0.30;0.30;;;;;;;;;;5086433;28;20029;-80
2024/01/17 09:46:44;;;;;;;8.40;2.35;;;;;;;;;;5085966;28;20166;-81
2024/01/17 09:49:09;;;;;;;4.95;2.63;;;;;;;;;;5085821;28;20028;-80
2024/01/17 09:51:35;;;;;;;6.47;1.00;;;;;;;;;;5079362;28;20180;-79
2024/01/17 09:54:04;;;;;;;0.20;0.20;;;;;;;;;;5083693;28;20016;-81
2024/01/17 09:56:31;;;;;;;3.63;1.02;;;;;;;;;;5060506;28;20425;-79
2024/01/17 09:58:59;;;;;;;0.85;0.35;;;;;;;;;;5082010;28;20032;-81
2024/01/17 10:01:26;;;;;;;0.82;0.60;;;;;;;;;;5083490;28;20024;-79
2024/01/17 10:03:54;;;;;;;2.42;1.40;;;;;;;;;;5084776;28;20064;-79
2024/01/17 10:06:20;;;;;;;4.28;1.75;;;;;;;;;;5080834;28;20111;-79
2024/01/17 10:08:47;;;;;;;0.15;0.15;;;;;;;;;;5082874;28;20091;-81
2024/01/17 10:11:13;;;;;;;4.47;1.27;;;;;;;;;;5087442;28;20527;-82
2024/01/17 10:13:40;;;;;;;6.38;1.90;;;;;;;;;;5089753;28;20066;-79
2024/01/17 10:16:08;;;;;;;10.73;4.38;;;;;;;;;;5084299;28;20040;-79
2024/01/17 10:18:34;;;;;;;16.75;3.67;;;;;;;;;;5088941;28;20020;-83
2024/01/17 10:20:59;;;;;;;11.75;2.78;;;;;;;;;;5092033;28;20101;-80
2024/01/17 10:23:26;;;;;;;21.60;4.03;;;;;;;;;;5088860;28;20348;-81
2024/01/17 10:25:52;;;;;;;9.70;3.05;;;;;;;;;;5083445;28;20025;-79
2024/01/17 10:28:17;;;;;;;0.68;0.50;;;;;;;;;;5081380;28;20032;-81
2024/01/17 10:30:43;;;;;;;8.95;2.67;;;;;;;;;;5087809;28;20033;-81
2024/01/17 10:33:08;;;;;;;33.28;5.85;;;;;;;;;;5085906;28;20027;-81
2024/01/17 10:35:34;;;;;;;21.55;2.53;;;;;;;;;;5083691;28;20069;-83
2024/01/17 10:38:00;;;;;;;26.15;5.82;;;;;;;;;;5090060;28;20088;-81
2024/01/17 10:40:25;;;;;;;20.10;4.35;;;;;;;;;;5077553;28;20020;-80
2024/01/17 10:43:10;;;;;;;5.72;1.17;;;;;;;;;;5093479;28;20100;-80
2024/01/17 10:45:36;;;;;;;16.85;2.05;;;;;;;;;;5079265;28;20556;-80
2024/01/17 10:48:02;;;;;;;10.43;2.25;;;;;;;;;;5074118;28;20037;-79
2024/01/17 10:50:29;;;;;;;13.88;3.08;;;;;;;;;;5088827;28;20070;-82
2024/01/17 10:52:59;;;;;;;3.53;0.60;;;;;;;;;;5091112;28;20028;-82
2024/01/17 10:55:27;;;;;;;6.90;1.13;;;;;;;;;;5081265;28;20016;-81
2024/01/17 10:57:54;;;;;;;18.58;3.38;;;;;;;;;;5091749;28;20028;-81
2024/01/17 11:00:26;;;;;;;25.02;4.20;;;;;;;;;;5086221;28;20028;-80
2024/01/17 11:02:51;;;;;;;17.77;3.50;;;;;;;;;;5092503;28;20467;-83
2024/01/17 11:05:19;;;;;;;11.70;2.67;;;;;;;;;;5082318;28;20101;-80
2024/01/17 11:07:46;;;;;;;9.40;1.73;;;;;;;;;;5091460;28;20030;-80
2024/01/17 11:10:12;;;;;;;10.15;3.30;;;;;;;;;;5093656;28;20030;-82
2024/01/17 11:12:38;;;;;;;17.77;3.78;;;;;;;;;;5086620;28;20133;-81
2024/01/17 11:15:04;;;;;;;2.63;1.10;;;;;;;;;;5075907;28;20028;-82
2024/01/17 11:17:32;;;;;;;4.93;1.23;;;;;;;;;;5080941;28;20353;-85
2024/01/17 11:19:59;;;;;;;15.27;2.90;;;;;;;;;;5080700;28;20034;-85
2024/01/17 11:22:25;;;;;;;13.25;3.20;;;;;;;;;;5087830;28;20032;-82
2024/01/17 11:24:59;;;;;;;7.35;1.13;;;;;;;;;;5084292;28;20032;-82
2024/01/17 11:27:33;;;;;;;1.13;0.77;;;;;;;;;;5078358;28;20012;-81
2024/01/17 11:30:05;;;;;;;6.65;2.30;;;;;;;;;;5078669;28;20039;-85
2024/01/17 11:32:49;;;;;;;7.55;2.58;;;;;;;;;;5082126;28;20020;-81
2024/01/17 11:35:44;;;;;;;7.70;2.83;;;;;;;;;;5081257;28;20035;-84
2024/01/17 11:38:13;;;;;;;8.07;2.47;;;;;;;;;;5090195;28;20050;-85
2024/01/17 11:40:39;;;;;;;;;;;;;;;;;;5088051;28;20564;-84
2024/01/17 11:43:04;;;;;;;6.32;2.10;;;;;;;;;;5069581;28;19940;-84
2024/01/17 11:45:30;;;;;;;0.38;0.38;;;;;;;;;;5070286;28;20368;-85
2024/01/17 11:47:55;;;;;;;12.38;2.92;;;;;;;;;;5070308;28;20070;-84
2024/01/17 11:50:22;;;;;;;1.75;1.65;;;;;;;;;;5072121;28;20049;-86
2024/01/17 11:52:48;;;;;;;0.20;0.20;;;;;;;;;;5071522;28;20016;-85
2024/01/17 11:55:15;;;;;;;0.20;0.20;;;;;;;;;;5086356;28;20077;-84
2024/01/17 11:57:40;;;;;;;9.90;2.08;;;;;;;;;;5084688;28;20024;-84
2024/01/17 12:00:06;;;;;;;0.98;0.70;;;;;;;;;;5076598;28;20090;-84
2024/01/17 12:02:39;;;;;;;0.30;0.30;;;;;;;;;;5080635;28;20027;-84
2024/01/17 12:05:06;;;;;;;0.28;0.28;;;;;;;;;;5084582;28;20039;-85
2024/01/17 12:07:36;;;;;;;4.78;1.95;;;;;;;;;;5069503;28;20108;-86
2024/01/17 12:10:08;;;;;;;1.60;0.98;;;;;;;;;;5068961;28;20040;-80
2024/01/17 12:12:34;;;;;;;14.88;2.35;;;;;;;;;;5081448;28;20046;-83
2024/01/17 12:15:05;;;;;;;13.55;3.47;;;;;;;;;;5088633;28;20063;-83
2024/01/17 12:17:32;;;;;;;6.03;2.33;;;;;;;;;;5081527;28;20434;-83
2024/01/17 12:19:58;;;;;;;5.78;1.83;;;;;;;;;;5081744;28;20040;-83
2024/01/17 12:22:24;;;;;;;6.18;1.75;;;;;;;;;;5088930;28;20028;-83
2024/01/17 12:24:50;;;;;;;1.50;0.88;;;;;;;;;;5088811;28;20043;-83
2024/01/17 12:27:15;;;;;;;10.15;1.42;;;;;;;;;;5088985;28;20055;-83
2024/01/17 12:29:42;;;;;;;1.08;0.95;;;;;;;;;;5082696;28;20095;-83
2024/01/17 12:32:07;;;;;;;12.38;2.17;;;;;;;;;;5078016;28;20032;-84
2024/01/17 12:34:33;;;;;;;13.43;4.18;;;;;;;;;;5085631;28;20036;-82
2024/01/17 12:36:58;;;;;;;4.38;1.45;;;;;;;;;;5087640;28;20102;-84
2024/01/17 12:39:24;;;;;;;18.90;3.72;;;;;;;;;;5083499;28;20032;-83
2024/01/17 12:41:56;;;;;;;22.13;3.67;;;;;;;;;;5084304;28;20032;-85
2024/01/17 12:44:22;;;;;;;26.33;3.47;;;;;;;;;;5088955;28;20077;-82
2024/01/17 12:46:47;;;;;;;6.85;1.33;;;;;;;;;;5085623;28;20470;-84
2024/01/17 12:49:14;;;;;;;6.35;2.45;;;;;;;;;;5075990;28;20115;-84
2024/01/17 12:51:39;;;;;;;11.38;2.08;;;;;;;;;;5079904;28;20040;-84
2024/01/17 12:54:05;;;;;;;12.10;1.65;;;;;;;;;;5086963;28;20024;-83
2024/01/17 12:56:31;;;;;;;20.38;3.85;;;;;;;;;;5087659;28;20035;-83
2024/01/17 12:58:56;;;;;;;3.10;0.63;;;;;;;;;;5088923;28;20495;-83
2024/01/17 13:01:25;;;;;;;0.88;0.47;;;;;;;;;;5087034;28;20285;-83
2024/01/17 13:04:00;;;;;;;23.63;3.50;;;;;;;;;;5086369;28;20074;-83
2024/01/17 13:06:26;;;;;;;23.85;3.72;;;;;;;;;;5086937;28;20032;-85
2024/01/17 13:08:51;;;;;;;17.25;2.47;;;;;;;;;;5079792;28;20031;-83
2024/01/17 13:11:18;;;;;;;5.65;2.15;;;;;;;;;;5074149;28;20494;-80
2024/01/17 13:13:43;;;;;;;0.65;0.43;;;;;;;;;;5086110;28;20048;-84
2024/01/17 13:16:09;;;;;;;5.75;2.20;;;;;;;;;;5088116;28;20094;-83
2024/01/17 13:18:36;;;;;;;9.40;1.88;;;;;;;;;;5088452;28;20032;-82
2024/01/17 13:21:17;;;;;;;10.85;2.40;;;;;;;;;;5087985;28;20364;-84
2024/01/17 13:23:42;;;;;;;9.48;1.75;;;;;;;;;;5078785;28;20104;-84
2024/01/17 13:26:08;;;;;;;25.08;1.80;;;;;;;;;;5071027;28;20114;-83
2024/01/17 13:28:34;;;;;;;16.35;3.70;;;;;;;;;;5088303;28;20509;-86
2024/01/17 13:30:59;;;;;;;3.40;1.75;;;;;;;;;;5087015;28;20480;-82
2024/01/17 13:33:25;;;;;;;4.93;1.10;;;;;;;;;;5086110;28;20812;-82
2024/01/17 13:35:54;;;;;;;13.45;1.52;;;;;;;;;;5086945;28;20027;-82
2024/01/17 13:38:25;;;;;;;13.75;2.58;;;;;;;;;;5087983;28;20058;-84
2024/01/17 13:40:52;;;;;;;0.10;0.10;;;;;;;;;;5085481;28;20077;-82
2024/01/17 13:43:17;;;;;;;17.42;2.50;;;;;;;;;;5084114;28;20020;-81
2024/01/17 13:45:43;;;;;;;7.72;1.65;;;;;;;;;;5080889;28;20113;-80
2024/01/17 13:48:08;;;;;;;7.47;1.42;;;;;;;;;;5086352;28;20363;-82
2024/01/17 13:50:34;;;;;;;9.38;3.22;;;;;;;;;;5086326;28;20044;-83
2024/01/17 13:53:07;;;;;;;2.28;0.82;;;;;;;;;;5088391;28;20024;-84
2024/01/17 13:55:33;;;;;;;0.20;0.20;;;;;;;;;;5091377;28;20074;-84
2024/01/17 13:57:59;;;;;;;5.30;1.85;;;;;;;;;;5085980;28;20464;-84
2024/01/17 14:00:25;;;;;;;1.70;0.15;;;;;;;;;;5086244;28;20045;-82
2024/01/17 14:02:52;;;;;;;0.45;0.45;;;;;;;;;;5082840;28;20744;-85
2024/01/17 14:05:18;;;;;;;15.13;0.93;;;;;;;;;;5082227;28;20050;-85
2024/01/17 14:07:44;;;;;;;8.00;1.38;;;;;;;;;;5081041;28;20033;-84
2024/01/17 14:10:10;;;;;;;0.22;0.22;;;;;;;;;;5089761;28;20035;-83
2024/01/17 14:12:37;;;;;;;0.35;0.35;;;;;;;;;;5076981;28;20158;-83
2024/01/17 14:15:03;;;;;;;5.60;1.75;;;;;;;;;;5091148;28;20256;-85
2024/01/17 14:17:29;;;;;;;0.30;0.30;;;;;;;;;;5092075;28;20322;-87
2024/01/17 14:19:54;;;;;;;1.05;0.32;;;;;;;;;;5088544;28;20032;-83
2024/01/17 14:22:26;;;;;;;0.20;0.20;;;;;;;;;;5083799;28;20021;-86
2024/01/17 14:24:52;;;;;;;3.35;1.13;;;;;;;;;;5081693;28;20104;-84
2024/01/17 14:27:18;;;;;;;1.00;0.95;;;;;;;;;;5087096;28;20047;-86
2024/01/17 14:29:44;;;;;;;0.20;0.20;;;;;;;;;;5086739;28;20024;-86
2024/01/17 14:32:09;;;;;;;2.50;0.40;;;;;;;;;;5087088;28;20016;-87
2024/01/17 14:34:35;;;;;;;0.10;0.10;;;;;;;;;;5091725;28;20346;-84
2024/01/17 14:37:01;;;;;;;0.10;0.10;;;;;;;;;;5087011;28;20023;-88